Calvin, OK (74531)

11:07 PM CDT on September 15, 2014 (GMT -0500)
Horntown OK | Change Station
CLOSE
Current Station
Personal Weather Station
Location: Holdenville, OK
Elevation: 827 ft
Nearby Weather Stations
4.0 Earthquake: Guthrie, Oklahoma (7 hours ago)  

Elev 827 ft 35.08 °N, 96.26 °W | Updated 30 seconds ago

Overcast
Overcast
68.7 °F
Feels Like 68.7 °F
N
0.0
Wind Variable Wind from SSW

Today
High -- | Low -- °F
--% Chance of Precip.
Yesterday
High -- | Low -- °F
Precip. -- in
7:08 AM 7:31 PM
Waning Gibbous, 49% visible
Pressure 30.15 in
Visibility 10.0 miles
Clouds Overcast 11000 ft
Dew Point 68 °F
Humidity 98%
Rainfall 0.00 in
Snow Depth Not available.
UV 0 out of 12
Pollen 7.80 out of 12
Air Quality Not available.
Flu Activity Not available.
METAR KADH 160355Z AUTO 15004KT 10SM OVC110 22/22 A3015 RMK AO2

More Conditions Fewer Conditions

Pressure 30.15 in
Visibility 10.0 miles
Clouds Overcast 11000 ft
Dew Point 68 °F
Humidity 98%
Rainfall 0.00 in
Snow Depth Not available.
UV 0 out of 12
Pollen 7.80 out of 12
Air Quality Not available.
Flu Activity Not available.
METAR KADH 160355Z AUTO 15004KT 10SM OVC110 22/22 A3015 RMK AO2

More Conditions Fewer Conditions

10-Day Weather Forecast

Almanac

Astronomy

Sep. 15, 2014 Rise Set
Actual Time 7:08 AM CDT 7:31 PM CDT
Civil Twilight 6:42 AM CDT 7:57 PM CDT
Nautical Twilight 6:13 AM CDT 8:26 PM CDT
Astronomical Twilight 5:42 AM CDT 8:57 PM CDT
Moon No Moon Rise 1:55 PM CDT (9/15)
Length of Visible Light 13h 14m
Length of Day
12h 23m
Tomorrow will be 2m 10s shorter.
Waning Gibbous, 49% of the Moon is Illuminated
Sep 16
Waning Gibbous
Sep 24
New
Oct 1
First Quarter
Oct 8
Full
Oct 15
Last Quarter

Today's Extremes

State Highs State Lows

Community

WunderPhotos

Upload Photos

1,753,695 photos uploaded!

Nearby

Snow Depth

Station Depth Elevation
No new snow has been reported.

Earthquake Activity

City Distance Mag. Time & Date
Guthrie, Oklahoma 93 miles 2.7 4:00 PM CDT
2014-09-15
Guthrie, Oklahoma 93 miles 3.2 3:14 PM CDT
2014-09-15
Guthrie, Oklahoma 93 miles 4.0 3:08 PM CDT
2014-09-15
Enid, Oklahoma 156 miles 3.1 8:27 AM CDT
2014-09-15
Minimum magnitude displayed is 2.5.

Coastal Water Temperatures

Place Temperature
No Stations Reporting

Nearby Weather Stations